Time;durP1;ratioP1;P1;durP2;ratioP2;P2;SDS_P1;SDS_P2;PMS_P1;PMS_P2;Temp;Humidity;BMP_temperature;BMP_pressure;BME280_temperature;BME280_humidity;BME280_pressure;Samples;Min_cycle;Max_cycle;Signal;HPM_P1;HPM_P2
2023/09/11 04:05:58;;;;;;;10.00;8.07;;;;;;;18.20;80.17;100618.91;5606212;31;77668;-56
2023/09/11 04:09:01;;;;;;;11.85;7.60;;;;;;;18.20;80.17;100618.91;5596524;31;33244;-56
2023/09/11 04:12:04;;;;;;;9.82;7.72;;;;;;;17.76;83.16;100620.94;5603525;31;33952;-58
2023/09/11 04:15:07;;;;;;;13.30;7.78;;;;;;;17.67;80.71;100620.94;5592011;31;33618;-57
2023/09/11 04:18:09;;;;;;;10.30;7.30;;;;;;;17.65;85.25;100622.38;5583721;31;34281;-57
2023/09/11 04:21:12;;;;;;;15.38;7.72;;;;;;;17.70;85.96;100611.38;5583840;32;34349;-57
2023/09/11 04:24:14;;;;;;;12.98;7.35;;;;;;;17.70;82.32;100616.81;5583429;31;34519;-58
2023/09/11 04:27:16;;;;;;;9.00;6.85;;;;;;;17.71;79.98;100615.69;5583446;31;33220;-58
2023/09/11 04:30:19;;;;;;;11.50;7.45;;;;;;;17.69;79.52;100615.22;5586120;31;33314;-57
2023/09/11 04:33:23;;;;;;;12.20;8.73;;;;;;;17.72;80.31;100618.09;5583735;31;33328;-56
2023/09/11 04:36:25;;;;;;;9.20;6.80;;;;;;;17.69;80.55;100610.59;5569425;31;33656;-56
2023/09/11 04:39:28;;;;;;;9.88;7.30;;;;;;;17.89;77.83;100609.13;5563652;32;34215;-57
2023/09/11 04:42:31;;;;;;;8.82;7.35;;;;;;;17.85;86.69;100605.50;5563790;32;34426;-57
2023/09/11 04:45:34;;;;;;;10.48;7.07;;;;;;;17.68;82.97;100611.72;5563792;32;31886;-57
2023/09/11 04:48:38;;;;;;;11.40;7.60;;;;;;;17.86;79.01;100611.72;5563628;32;33429;-57
2023/09/11 04:51:42;;;;;;;10.05;7.35;;;;;;;17.84;98.00;100601.16;5563478;32;34665;-58
2023/09/11 04:54:45;;;;;;;11.48;7.53;;;;;;;17.83;92.60;100608.50;5582519;32;33560;-56
2023/09/11 04:57:48;;;;;;;12.65;7.87;;;;;;;17.86;94.76;100611.72;5582861;32;33328;-56
2023/09/11 05:00:52;;;;;;;9.48;7.37;;;;;;;17.86;87.06;100606.28;5582780;31;33606;-56
2023/09/11 05:03:54;;;;;;;10.43;8.10;;;;;;;17.89;85.73;100608.34;5582879;32;33670;-57
2023/09/11 05:06:57;;;;;;;12.43;8.73;;;;;;;17.94;85.08;100606.25;5583237;31;33455;-58
2023/09/11 05:10:01;;;;;;;12.10;7.85;;;;;;;17.98;90.25;100606.37;5582983;31;33588;-57
2023/09/11 05:13:04;;;;;;;18.02;8.35;;;;;;;18.00;87.18;100601.44;5582190;31;33498;-57
2023/09/11 05:16:06;;;;;;;11.85;7.30;;;;;;;18.06;92.58;100598.22;5559181;31;33427;-57
2023/09/11 05:19:09;;;;;;;14.07;7.82;;;;;;;18.05;83.53;100604.78;5556504;32;34388;-57
2023/09/11 05:22:11;;;;;;;12.30;8.07;;;;;;;18.10;84.16;100611.94;5564751;32;34392;-57
2023/09/11 05:25:14;;;;;;;16.42;7.78;;;;;;;18.23;89.19;100605.50;5559630;32;33628;-56
2023/09/11 05:28:16;;;;;;;12.15;7.60;;;;;;;18.30;86.74;100611.22;5564883;32;33502;-57
2023/09/11 05:31:19;;;;;;;14.30;7.78;;;;;;;18.34;80.88;100600.50;5558814;32;33135;-57
2023/09/11 05:34:22;;;;;;;13.73;8.15;;;;;;;18.48;89.69;100601.06;5554216;32;34595;-57
2023/09/11 05:37:24;;;;;;;15.15;8.25;;;;;;;18.56;95.80;100602.16;5559833;32;33566;-57
2023/09/11 05:40:27;;;;;;;21.62;8.82;;;;;;;18.63;92.60;100590.75;5565120;32;34392;-57
2023/09/11 05:43:29;;;;;;;21.65;8.65;;;;;;;18.72;84.34;100597.75;5561989;32;34203;-56
2023/09/11 05:46:31;;;;;;;17.02;8.82;;;;;;;18.80;81.87;100596.09;5555727;32;33873;-57
2023/09/11 05:49:34;;;;;;;19.37;9.07;;;;;;;18.97;81.86;100603.34;5561875;32;34165;-57
2023/09/11 05:52:38;;;;;;;10.52;8.05;;;;;;;19.03;78.84;100602.00;5561985;32;33682;-57
2023/09/11 05:55:40;;;;;;;31.73;10.23;;;;;;;19.10;77.25;100602.28;5558169;32;33671;-57
2023/09/11 05:58:43;;;;;;;13.25;8.73;;;;;;;19.17;85.33;100599.84;5560194;32;34334;-57
2023/09/11 06:01:46;;;;;;;18.23;8.68;;;;;;;19.25;77.59;100607.13;5557971;32;34361;-56
2023/09/11 06:04:48;;;;;;;15.07;8.63;;;;;;;19.38;82.61;100607.19;5559375;32;34375;-57
2023/09/11 06:07:51;;;;;;;11.32;8.27;;;;;;;19.55;85.31;100601.56;5555338;32;35246;-57
2023/09/11 06:10:54;;;;;;;16.50;8.48;;;;;;;19.66;75.46;100604.69;5558286;32;33343;-57
2023/09/11 06:13:57;;;;;;;20.88;8.68;;;;;;;19.76;77.98;100603.47;5566213;32;34426;-56
2023/09/11 06:17:03;;;;;;;16.15;8.32;;;;;;;19.85;75.19;100598.72;5559047;32;33740;-57
2023/09/11 06:20:09;;;;;;;14.50;8.90;;;;;;;19.97;73.90;100595.22;5559382;32;33676;-56
2023/09/11 06:23:12;;;;;;;17.77;8.65;;;;;;;19.99;74.11;100599.19;5549787;32;34298;-57
2023/09/11 06:26:15;;;;;;;13.60;8.30;;;;;;;20.11;78.99;100598.44;5549070;32;34276;-57
2023/09/11 06:29:19;;;;;;;15.00;8.35;;;;;;;20.17;73.01;100597.88;5549099;32;33589;-57
2023/09/11 06:32:21;;;;;;;25.80;9.02;;;;;;;20.26;72.32;100599.66;5555744;32;33705;-57
2023/09/11 06:35:25;;;;;;;20.77;9.90;;;;;;;20.36;72.72;100591.88;5557912;32;33679;-57
2023/09/11 06:38:28;;;;;;;17.45;7.90;;;;;;;20.47;74.26;100597.63;5561885;32;33594;-58
2023/09/11 06:41:31;;;;;;;50.95;13.52;;;;;;;20.56;78.75;100601.06;5562249;32;34354;-57
2023/09/11 06:44:33;;;;;;;15.30;9.05;;;;;;;20.73;79.29;100601.94;5567069;32;34304;-56
2023/09/11 06:47:36;;;;;;;24.27;9.82;;;;;;;20.79;74.46;100600.56;5554709;32;33600;-57
2023/09/11 06:50:38;;;;;;;16.40;10.10;;;;;;;20.88;76.87;100607.47;5555596;32;32521;-56
2023/09/11 06:53:41;;;;;;;15.63;10.07;;;;;;;21.02;72.85;100604.38;5561350;32;33554;-57
2023/09/11 06:56:44;;;;;;;26.67;11.07;;;;;;;21.18;73.69;100600.91;5567135;32;33688;-57
2023/09/11 06:59:47;;;;;;;20.15;10.25;;;;;;;21.33;74.09;100608.38;5561443;32;34383;-57
2023/09/11 07:02:51;;;;;;;14.50;9.32;;;;;;;21.38;72.66;100613.59;5567127;32;34424;-58
2023/09/11 07:05:54;;;;;;;13.02;8.88;;;;;;;21.44;68.67;100609.47;5565399;32;34389;-57
2023/09/11 07:08:56;;;;;;;18.98;9.20;;;;;;;21.57;72.31;100611.00;5566420;32;33666;-57
2023/09/11 07:11:59;;;;;;;12.45;8.50;;;;;;;21.69;74.04;100612.91;5566685;32;34246;-57
2023/09/11 07:15:02;;;;;;;21.08;9.27;;;;;;;21.68;69.12;100610.50;5556228;32;33669;-58
2023/09/11 07:18:05;;;;;;;12.80;8.43;;;;;;;21.70;68.87;100614.47;5557249;32;33546;-56
2023/09/11 07:21:07;;;;;;;15.23;8.75;;;;;;;21.77;70.68;100617.38;5555421;32;33693;-57
2023/09/11 07:24:11;;;;;;;14.23;9.40;;;;;;;21.87;66.63;100612.56;5556647;32;34045;-57
2023/09/11 07:27:13;;;;;;;20.15;9.73;;;;;;;21.98;69.37;100617.13;5559821;32;34193;-57
2023/09/11 07:30:15;;;;;;;14.77;9.73;;;;;;;21.99;67.46;100621.47;5556982;32;34353;-57
2023/09/11 07:33:19;;;;;;;14.73;9.05;;;;;;;22.02;66.21;100620.75;5555791;32;34305;-57
2023/09/11 07:36:22;;;;;;;15.48;9.32;;;;;;;22.10;68.79;100621.72;5564679;32;34109;-57
2023/09/11 07:39:24;;;;;;;15.80;8.27;;;;;;;22.19;68.29;100621.59;5557604;32;34423;-57
2023/09/11 07:42:29;;;;;;;11.77;8.00;;;;;;;22.22;70.39;100632.59;5560808;32;33678;-57
2023/09/11 07:45:31;;;;;;;12.18;7.93;;;;;;;22.30;73.27;100628.09;5562680;32;33655;-57
2023/09/11 07:48:35;;;;;;;18.85;9.30;;;;;;;22.31;71.02;100628.88;5556217;32;34298;-58
2023/09/11 07:51:37;;;;;;;14.52;8.65;;;;;;;22.44;69.51;100624.91;5557443;32;34042;-57
2023/09/11 07:54:40;;;;;;;33.88;10.55;;;;;;;22.44;68.78;100622.97;5566122;32;34260;-57
2023/09/11 07:57:43;;;;;;;21.08;9.60;;;;;;;22.54;63.42;100618.09;5559195;32;33832;-57
2023/09/11 08:00:45;;;;;;;18.02;9.27;;;;;;;22.54;62.89;100621.62;5560022;32;34325;-57
2023/09/11 08:03:48;;;;;;;14.65;8.75;;;;;;;22.63;64.19;100618.72;5557673;32;34312;-58
2023/09/11 08:06:51;;;;;;;23.17;8.98;;;;;;;22.67;65.04;100619.56;5565324;32;33637;-58
2023/09/11 08:09:53;;;;;;;14.70;8.55;;;;;;;22.75;66.34;100616.66;5558486;32;33306;-57
2023/09/11 08:12:56;;;;;;;18.92;8.45;;;;;;;22.83;67.52;100616.81;5560815;32;33702;-57
2023/09/11 08:15:58;;;;;;;12.95;8.65;;;;;;;22.86;66.78;100618.84;5556131;32;33622;-57
2023/09/11 08:19:00;;;;;;;20.08;9.55;;;;;;;22.88;62.40;100609.13;5563802;32;34271;-58
2023/09/11 08:22:03;;;;;;;46.92;10.55;;;;;;;22.90;61.87;100616.97;5559332;32;34173;-58
2023/09/11 08:25:05;;;;;;;20.90;9.13;;;;;;;22.95;61.96;100609.31;5561159;32;34293;-57
2023/09/11 08:28:10;;;;;;;13.93;7.80;;;;;;;23.02;61.62;100613.34;5562655;32;34269;-58
2023/09/11 08:31:12;;;;;;;338.20;28.10;;;;;;;23.05;61.54;100607.16;5565571;32;33185;-58
2023/09/11 08:34:15;;;;;;;30.70;9.40;;;;;;;23.10;63.92;100607.66;5553854;32;33605;-58
2023/09/11 08:37:17;;;;;;;15.07;8.20;;;;;;;23.23;63.67;100602.84;5558101;32;35294;-58
2023/09/11 08:40:20;;;;;;;38.33;10.70;;;;;;;23.22;61.35;100601.25;5559211;32;33603;-57
2023/09/11 08:43:24;;;;;;;18.75;9.13;;;;;;;23.31;62.06;100596.37;5554673;32;33714;-57
2023/09/11 08:46:32;;;;;;;20.25;8.88;;;;;;;23.42;61.80;100596.56;5559367;32;33652;-57
2023/09/11 08:49:44;;;;;;;22.85;9.20;;;;;;;23.59;61.73;100593.37;5551842;32;33595;-57
2023/09/11 08:52:48;;;;;;;18.98;8.60;;;;;;;23.65;61.25;100597.38;5558329;32;34295;-57
2023/09/11 08:55:54;;;;;;;20.83;10.07;;;;;;;23.79;60.60;100601.56;5562339;32;33543;-57
2023/09/11 08:58:59;;;;;;;68.68;13.35;;;;;;;23.87;62.44;100592.31;5560382;32;33158;-58
2023/09/11 09:02:03;;;;;;;17.58;7.57;;;;;;;23.88;62.05;100593.91;5560222;32;33609;-57
2023/09/11 09:05:07;;;;;;;;;;;;;;;23.99;60.27;100583.91;5564421;31;33571;-57
2023/09/11 09:08:12;;;;;;;14.30;7.87;;;;;;;24.14;59.16;100582.22;5563402;32;33874;-57
2023/09/11 09:11:16;;;;;;;14.83;7.60;;;;;;;24.22;58.03;100586.63;5560106;32;34418;-58
2023/09/11 09:14:19;;;;;;;16.12;8.48;;;;;;;24.27;57.99;100588.25;5560928;32;33964;-58
2023/09/11 09:17:21;;;;;;;26.90;11.05;;;;;;;24.34;58.01;100578.22;5560469;32;34374;-57
2023/09/11 09:20:24;;;;;;;139.90;17.15;;;;;;;24.39;58.14;100574.34;5554596;32;34093;-57
2023/09/11 09:23:36;;;;;;;17.55;7.80;;;;;;;24.35;58.84;100582.53;5556007;32;33755;-57
2023/09/11 09:27:01;;;;;;;15.73;7.65;;;;;;;24.41;57.45;100579.53;5553833;32;33804;-58
2023/09/11 09:30:18;;;;;;;19.67;9.02;;;;;;;24.45;57.23;100578.41;5554022;32;34287;-57
2023/09/11 09:33:24;;;;;;;20.27;7.80;;;;;;;24.58;57.38;100571.53;5565219;32;33465;-60
2023/09/11 09:36:27;;;;;;;18.52;7.47;;;;;;;24.55;55.97;100571.50;5552908;32;34013;-56
2023/09/11 09:39:29;;;;;;;17.87;7.10;;;;;;;24.72;56.58;100572.87;5554194;32;33670;-57
2023/09/11 09:42:42;;;;;;;11.40;7.25;;;;;;;24.81;55.34;100570.66;5557797;32;33601;-57
2023/09/11 09:45:45;;;;;;;16.65;6.90;;;;;;;25.00;55.49;100569.69;5561640;32;33721;-57
2023/09/11 09:48:48;;;;;;;23.23;7.18;;;;;;;24.92;54.55;100557.88;5560295;32;34337;-58
2023/09/11 09:51:52;;;;;;;18.52;7.05;;;;;;;24.94;55.20;100554.78;5549524;32;33922;-58
2023/09/11 09:54:57;;;;;;;12.93;6.68;;;;;;;25.01;54.39;100557.59;5560015;32;33826;-56
2023/09/11 09:57:59;;;;;;;12.90;6.50;;;;;;;25.00;54.53;100548.56;5567950;32;34383;-57
2023/09/11 10:01:03;;;;;;;14.38;6.78;;;;;;;25.14;53.25;100541.72;5555296;32;34227;-57
2023/09/11 10:04:15;;;;;;;12.88;5.95;;;;;;;25.15;52.91;100546.81;5558788;32;33603;-56
2023/09/11 10:07:36;;;;;;;11.15;5.95;;;;;;;25.39;51.67;100536.47;5556670;32;34041;-56
2023/09/11 10:10:39;;;;;;;19.00;6.95;;;;;;;25.30;51.40;100534.03;5555249;32;33673;-56
2023/09/11 10:13:44;;;;;;;16.87;6.75;;;;;;;25.46;52.86;100536.53;5560751;32;34462;-55
2023/09/11 10:16:46;;;;;;;13.95;6.50;;;;;;;25.47;52.15;100525.19;5554097;32;33631;-56
2023/09/11 10:19:49;;;;;;;20.62;7.53;;;;;;;25.53;52.23;100520.94;5557277;32;33717;-58
2023/09/11 10:22:55;;;;;;;16.98;6.80;;;;;;;25.56;52.08;100522.13;5561770;32;33702;-58
2023/09/11 10:26:03;;;;;;;13.48;6.82;;;;;;;25.66;52.52;100520.62;5556230;32;34299;-58
2023/09/11 10:29:34;;;;;;;12.75;6.40;;;;;;;25.75;51.69;100504.63;5563137;32;34431;-59
2023/09/11 10:32:54;;;;;;;13.05;6.35;;;;;;;25.85;51.04;100500.44;5561685;32;34437;-58
2023/09/11 10:36:03;;;;;;;16.62;6.57;;;;;;;25.76;50.59;100497.97;5561166;32;33586;-58
2023/09/11 10:39:09;;;;;;;17.42;7.43;;;;;;;25.91;50.67;100490.66;5563406;32;34382;-59
2023/09/11 10:42:13;;;;;;;14.23;6.43;;;;;;;26.01;51.24;100490.72;5558103;32;33633;-58
2023/09/11 10:45:29;;;;;;;13.35;6.10;;;;;;;25.97;49.72;100494.63;5554471;32;33746;-57
2023/09/11 10:48:32;;;;;;;14.82;6.75;;;;;;;25.97;48.32;100486.41;5550828;32;34404;-58
2023/09/11 10:51:34;;;;;;;12.85;6.68;;;;;;;26.00;48.73;100482.88;5552855;32;34383;-58
2023/09/11 10:54:37;;;;;;;13.93;5.80;;;;;;;26.06;48.04;100486.03;5557285;32;33637;-56
2023/09/11 10:57:40;;;;;;;9.13;5.70;;;;;;;26.33;48.07;100490.16;5554570;32;33641;-58
2023/09/11 11:00:43;;;;;;;10.75;6.18;;;;;;;26.31;46.24;100489.72;5568133;32;33362;-56
2023/09/11 11:03:45;;;;;;;15.90;6.47;;;;;;;26.42;45.74;100490.59;5565191;32;33773;-57
2023/09/11 11:06:50;;;;;;;11.20;5.95;;;;;;;26.31;43.83;100483.44;5563641;32;34405;-57
2023/09/11 11:09:52;;;;;;;15.55;6.57;;;;;;;26.38;45.92;100476.03;5563997;32;34365;-57
2023/09/11 11:13:09;;;;;;;26.33;6.95;;;;;;;26.42;46.26;100482.34;5555988;32;33722;-56
2023/09/11 11:16:14;;;;;;;65.93;8.85;;;;;;;26.40;46.49;100476.44;5556592;32;33612;-57
2023/09/11 11:19:23;;;;;;;;;;;;;;;26.44;45.71;100477.22;5565634;32;33662;-57
2023/09/11 11:22:34;;;;;;;32.67;7.57;;;;;;;26.49;46.50;100473.38;5566308;32;33767;-57
2023/09/11 11:25:42;;;;;;;112.27;11.27;;;;;;;26.45;46.73;100472.53;5556315;32;33232;-57
2023/09/11 11:28:45;;;;;;;44.22;8.07;;;;;;;26.45;46.80;100469.78;5566733;32;33738;-57
2023/09/11 11:31:55;;;;;;;22.40;6.22;;;;;;;26.56;45.49;100467.91;5565401;32;33290;-57
2023/09/11 11:35:02;;;;;;;56.33;8.90;;;;;;;26.59;45.85;100472.62;5561036;32;34434;-57
2023/09/11 11:38:05;;;;;;;26.77;7.60;;;;;;;26.73;44.98;100465.59;5565961;32;33681;-57
2023/09/11 11:41:08;;;;;;;19.12;6.75;;;;;;;26.71;44.41;100453.00;5560555;32;34574;-57
2023/09/11 11:44:13;;;;;;;42.42;7.55;;;;;;;26.64;44.56;100450.25;5556771;32;33282;-58
2023/09/11 11:47:15;;;;;;;21.75;7.35;;;;;;;26.79;45.46;100450.28;5565063;32;33797;-57
2023/09/11 11:50:20;;;;;;;23.40;6.95;;;;;;;26.72;45.57;100440.03;5563517;32;34317;-58
2023/09/11 11:53:24;;;;;;;29.75;7.90;;;;;;;26.70;45.58;100442.41;5556938;32;33735;-57
2023/09/11 11:56:27;;;;;;;15.27;6.53;;;;;;;26.71;44.22;100439.25;5566468;32;34402;-57
2023/09/11 11:59:35;;;;;;;38.75;9.55;;;;;;;26.75;43.12;100441.22;5562868;32;33695;-58
2023/09/11 12:02:38;;;;;;;15.73;6.47;;;;;;;26.76;43.58;100429.09;5560125;32;34576;-57
2023/09/11 12:05:43;;;;;;;55.03;8.98;;;;;;;26.73;43.12;100427.88;5561438;32;33632;-56
2023/09/11 12:08:46;;;;;;;24.83;7.22;;;;;;;26.77;42.48;100420.44;5563563;32;33361;-56
2023/09/11 12:11:50;;;;;;;37.72;8.10;;;;;;;26.77;42.40;100425.94;5566384;32;33704;-56
2023/09/11 12:14:54;;;;;;;14.57;5.43;;;;;;;26.85;44.10;100416.50;5567760;32;33630;-57
2023/09/11 12:17:57;;;;;;;26.45;6.57;;;;;;;26.91;43.24;100412.19;5567615;32;34289;-57
2023/09/11 12:21:02;;;;;;;14.32;6.72;;;;;;;26.92;43.71;100412.97;5553681;32;33795;-59
2023/09/11 12:24:09;;;;;;;20.65;6.87;;;;;;;26.85;43.88;100411.00;5546991;32;33604;-56
2023/09/11 12:27:11;;;;;;;78.43;9.05;;;;;;;27.03;43.40;100411.03;5550016;32;34339;-57
2023/09/11 12:30:14;;;;;;;14.23;5.80;;;;;;;27.01;44.34;100404.34;5550261;32;33633;-57
2023/09/11 12:33:34;;;;;;;18.45;6.00;;;;;;;26.96;44.38;100397.28;5550188;32;34430;-57
2023/09/11 12:36:38;;;;;;;16.95;5.90;;;;;;;27.08;43.30;100402.38;5550268;32;34513;-58
2023/09/11 12:39:40;;;;;;;19.55;6.78;;;;;;;26.89;43.28;100400.03;5561480;32;34530;-57
2023/09/11 12:42:43;;;;;;;106.80;10.95;;;;;;;26.91;42.92;100395.69;5569930;32;33911;-57
2023/09/11 12:45:45;;;;;;;12.65;5.82;;;;;;;26.94;42.92;100394.13;5569600;32;34426;-57
2023/09/11 12:48:48;;;;;;;16.83;6.80;;;;;;;26.96;43.24;100399.25;5569513;32;33601;-57
2023/09/11 12:51:50;;;;;;;15.48;5.93;;;;;;;26.93;42.01;100390.59;5569662;32;33222;-57
2023/09/11 12:54:53;;;;;;;38.83;7.65;;;;;;;27.01;41.86;100385.09;5569319;32;33589;-57
2023/09/11 12:58:00;;;;;;;54.38;9.38;;;;;;;27.19;42.36;100380.44;5570152;32;33674;-56
2023/09/11 13:01:04;;;;;;;17.42;5.60;;;;;;;27.17;41.97;100378.06;5569929;32;34545;-56
2023/09/11 13:04:06;;;;;;;11.98;6.78;;;;;;;27.22;41.80;100376.09;5569641;32;33866;-56
2023/09/11 13:07:09;;;;;;;24.00;6.62;;;;;;;27.11;42.14;100371.34;5569216;32;33684;-56
2023/09/11 13:10:11;;;;;;;16.35;7.60;;;;;;;27.10;42.18;100361.53;5569959;32;33982;-57
2023/09/11 13:13:14;;;;;;;9.40;5.85;;;;;;;27.20;41.70;100364.69;5568067;32;33571;-57
2023/09/11 13:16:35;;;;;;;27.13;9.93;;;;;;;27.10;42.90;100355.25;5567445;32;33752;-56
2023/09/11 13:19:38;;;;;;;14.32;6.15;;;;;;;27.19;42.43;100360.38;5569243;32;33603;-56
2023/09/11 13:22:44;;;;;;;17.52;6.68;;;;;;;27.30;41.72;100366.66;5550253;32;34448;-56
2023/09/11 13:25:49;;;;;;;45.63;8.90;;;;;;;27.34;40.47;100357.22;5548905;32;33778;-56
2023/09/11 13:28:51;;;;;;;46.47;10.40;;;;;;;27.16;41.15;100356.44;5565182;32;33676;-56
2023/09/11 13:31:55;;;;;;;217.85;20.62;;;;;;;27.21;41.41;100355.25;5569272;32;34445;-57
2023/09/11 13:34:57;;;;;;;69.57;10.48;;;;;;;27.17;41.40;100349.75;5568312;32;33100;-57
2023/09/11 13:38:02;;;;;;;23.55;7.00;;;;;;;27.23;41.70;100341.91;5568882;32;34341;-58
2023/09/11 13:41:04;;;;;;;70.60;10.07;;;;;;;27.17;42.12;100339.53;5568971;32;33610;-57
2023/09/11 13:44:09;;;;;;;22.48;6.95;;;;;;;27.17;42.22;100336.78;5569500;32;33721;-57
2023/09/11 13:47:11;;;;;;;18.83;6.57;;;;;;;27.22;42.63;100334.81;5568619;32;33599;-56
2023/09/11 13:50:14;;;;;;;28.12;7.12;;;;;;;27.26;42.74;100336.38;5569390;31;34225;-57
2023/09/11 13:53:16;;;;;;;11.18;6.75;;;;;;;27.16;42.99;100331.69;5569085;32;33867;-57
2023/09/11 13:56:18;;;;;;;37.88;7.57;;;;;;;27.30;41.09;100333.62;5565390;32;33710;-57
2023/09/11 13:59:20;;;;;;;21.95;7.57;;;;;;;27.15;42.33;100325.41;5569055;32;33685;-57
2023/09/11 14:02:23;;;;;;;13.30;5.85;;;;;;;27.26;42.26;100322.63;5564713;32;34366;-57
2023/09/11 14:05:26;;;;;;;17.05;6.60;;;;;;;27.11;41.92;100319.06;5566387;32;33737;-57
2023/09/11 14:08:46;;;;;;;19.92;7.22;;;;;;;27.17;42.89;100317.53;5567532;32;33721;-58
2023/09/11 14:11:48;;;;;;;44.80;10.43;;;;;;;27.23;43.40;100317.91;5564655;32;33454;-56
2023/09/11 14:14:50;;;;;;;30.08;6.85;;;;;;;27.20;43.89;100310.44;5559662;32;34347;-57
2023/09/11 14:17:53;;;;;;;20.50;7.10;;;;;;;27.24;43.06;100305.72;5549958;32;33830;-56
2023/09/11 14:20:55;;;;;;;30.12;8.05;;;;;;;27.22;42.32;100305.34;5565834;32;34329;-58
2023/09/11 14:23:58;;;;;;;22.25;7.62;;;;;;;27.22;43.51;100304.53;5558178;32;34533;-57
2023/09/11 14:27:02;;;;;;;27.00;6.97;;;;;;;27.19;43.46;100300.63;5549466;32;33491;-58
2023/09/11 14:30:05;;;;;;;59.80;8.18;;;;;;;27.33;43.25;100294.31;5562259;32;33581;-58
2023/09/11 14:33:08;;;;;;;26.15;6.68;;;;;;;27.28;42.39;100297.44;5568801;32;34386;-57
2023/09/11 14:36:10;;;;;;;24.23;7.05;;;;;;;27.28;42.47;100295.47;5568450;32;33286;-57
2023/09/11 14:39:15;;;;;;;21.60;8.55;;;;;;;27.23;42.28;100298.66;5568746;32;33808;-57
2023/09/11 14:42:17;;;;;;;24.23;9.20;;;;;;;27.14;42.53;100301.00;5569247;32;33751;-58
2023/09/11 14:45:20;;;;;;;20.83;6.93;;;;;;;27.15;43.49;100292.38;5568655;32;34470;-57
2023/09/11 14:48:23;;;;;;;18.85;6.57;;;;;;;27.13;42.55;100293.94;5567477;32;33877;-56
2023/09/11 14:51:25;;;;;;;13.15;7.12;;;;;;;27.25;42.21;100292.75;5568577;32;33773;-57
2023/09/11 14:54:28;;;;;;;39.10;7.32;;;;;;;27.22;41.80;100288.84;5567934;32;34336;-56
2023/09/11 14:57:48;;;;;;;35.42;8.10;;;;;;;27.13;42.18;100283.72;5568862;32;33260;-58
2023/09/11 15:00:50;;;;;;;21.70;7.37;;;;;;;27.23;41.51;100282.13;5568681;32;34449;-57
2023/09/11 15:03:53;;;;;;;30.45;7.68;;;;;;;27.24;41.94;100277.41;5568586;32;34473;-57
2023/09/11 15:06:55;;;;;;;11.27;6.22;;;;;;;27.12;43.64;100275.84;5568758;32;34464;-58
2023/09/11 15:09:57;;;;;;;16.52;7.20;;;;;;;27.20;43.01;100271.13;5568934;32;34079;-57
2023/09/11 15:13:00;;;;;;;13.90;6.80;;;;;;;27.21;42.38;100278.19;5568920;32;34356;-57
2023/09/11 15:16:02;;;;;;;12.75;6.20;;;;;;;27.20;42.67;100287.66;5568813;32;33772;-57
2023/09/11 15:19:05;;;;;;;16.23;6.37;;;;;;;27.15;43.26;100283.31;5569116;32;34334;-58
2023/09/11 15:22:07;;;;;;;12.82;6.15;;;;;;;27.10;43.83;100276.22;5568840;32;33768;-56
2023/09/11 15:25:10;;;;;;;11.57;6.00;;;;;;;27.09;43.82;100277.41;5568934;32;34301;-57
2023/09/11 15:28:12;;;;;;;11.82;6.18;;;;;;;27.13;43.58;100278.22;5568420;32;33219;-57
2023/09/11 15:31:15;;;;;;;10.55;6.20;;;;;;;27.05;43.94;100278.59;5567913;32;33609;-57
2023/09/11 15:34:17;;;;;;;12.15;5.97;;;;;;;27.09;43.30;100274.66;5567585;32;33700;-57
2023/09/11 15:37:19;;;;;;;18.33;7.25;;;;;;;27.18;42.76;100279.78;5568195;32;34427;-57
2023/09/11 15:40:22;;;;;;;15.75;6.40;;;;;;;27.06;43.32;100283.72;5568132;32;34563;-57
